Time;durP1;ratioP1;P1;durP2;ratioP2;P2;SDS_P1;SDS_P2;PMS_P1;PMS_P2;Temp;Humidity;BMP_temperature;BMP_pressure;BME280_temperature;BME280_humidity;BME280_pressure;Samples;Min_cycle;Max_cycle;Signal;HPM_P1;HPM_P2
2023/06/07 00:01:05;;;;;;;23.92;9.55;;;11.70;99.90;;;;;;4942638;29;20083;-73
2023/06/07 00:03:31;;;;;;;19.47;9.20;;;11.70;99.90;;;;;;4950617;29;20054;-74
2023/06/07 00:05:56;;;;;;;21.80;10.02;;;11.70;99.90;;;;;;4936641;29;20908;-74
2023/06/07 00:08:23;;;;;;;21.00;9.10;;;11.70;99.90;;;;;;4947548;29;20024;-75
2023/06/07 00:10:49;;;;;;;26.65;9.20;;;11.70;99.90;;;;;;4944181;28;20019;-76
2023/06/07 00:13:14;;;;;;;23.73;9.70;;;11.70;99.90;;;;;;4940613;29;20463;-73
2023/06/07 00:15:40;;;;;;;24.80;11.00;;;11.70;99.90;;;;;;4950170;29;20034;-75
2023/06/07 00:18:07;;;;;;;22.00;9.43;;;11.60;99.90;;;;;;4938922;29;20027;-73
2023/06/07 00:20:33;;;;;;;22.65;9.85;;;11.70;99.90;;;;;;4945764;29;20122;-75
2023/06/07 00:23:01;;;;;;;20.52;9.40;;;11.60;99.90;;;;;;4946141;29;20066;-74
2023/06/07 00:25:27;;;;;;;24.48;9.80;;;11.60;99.90;;;;;;4938509;29;20443;-73
2023/06/07 00:27:53;;;;;;;20.15;9.13;;;11.60;99.90;;;;;;4949984;28;20036;-78
2023/06/07 00:30:18;;;;;;;18.77;8.68;;;11.60;99.90;;;;;;4936284;29;20035;-73
2023/06/07 00:32:44;;;;;;;19.20;8.73;;;11.50;99.90;;;;;;4944346;29;20028;-73
2023/06/07 00:35:14;;;;;;;21.50;10.52;;;11.50;99.90;;;;;;4947583;29;20031;-73
2023/06/07 00:37:40;;;;;;;18.77;8.68;;;11.50;99.90;;;;;;4937859;29;20114;-73
2023/06/07 00:40:07;;;;;;;21.75;9.75;;;11.50;99.90;;;;;;4953224;29;20523;-73
2023/06/07 00:42:33;;;;;;;22.35;8.43;;;11.50;99.90;;;;;;4945186;29;20407;-74
2023/06/07 00:44:58;;;;;;;18.30;8.90;;;11.50;99.90;;;;;;4946020;29;20050;-73
2023/06/07 00:47:25;;;;;;;20.90;8.70;;;11.50;99.90;;;;;;4938975;29;20028;-74
2023/06/07 00:49:52;;;;;;;19.20;8.43;;;11.50;99.90;;;;;;4950324;29;20152;-73
2023/06/07 00:52:17;;;;;;;21.10;8.50;;;11.40;99.90;;;;;;4940522;29;20070;-75
2023/06/07 00:54:43;;;;;;;20.77;8.68;;;11.40;99.90;;;;;;4944304;29;20059;-72
2023/06/07 00:57:10;;;;;;;23.48;9.25;;;11.40;99.90;;;;;;4947238;28;20348;-72
2023/06/07 00:59:35;;;;;;;24.35;9.20;;;11.40;99.90;;;;;;4937350;29;20487;-73
2023/06/07 01:02:01;;;;;;;22.23;8.82;;;11.40;99.90;;;;;;4949781;29;20066;-73
2023/06/07 01:04:29;;;;;;;20.73;8.50;;;11.40;99.90;;;;;;4941523;29;20043;-72
2023/06/07 01:06:55;;;;;;;21.52;8.23;;;11.40;99.90;;;;;;4932860;29;20028;-75
2023/06/07 01:09:22;;;;;;;20.40;8.48;;;11.40;99.90;;;;;;4936181;29;20038;-72
2023/06/07 01:11:50;;;;;;;17.65;8.05;;;11.40;99.90;;;;;;4937370;29;20118;-72
2023/06/07 01:14:17;;;;;;;22.33;8.63;;;11.30;99.90;;;;;;4947602;29;20028;-73
2023/06/07 01:16:44;;;;;;;22.67;9.00;;;11.40;99.90;;;;;;4945823;28;20526;-75
2023/06/07 01:19:23;;;;;;;19.48;8.90;;;11.30;99.90;;;;;;4963992;28;20031;-72
2023/06/07 01:21:56;;;;;;;20.63;9.23;;;11.30;99.90;;;;;;4954631;28;20031;-73
2023/06/07 01:24:22;;;;;;;18.73;8.20;;;11.30;99.90;;;;;;4949698;29;20399;-73
2023/06/07 01:26:52;;;;;;;21.17;8.98;;;11.30;99.90;;;;;;4947600;29;20031;-72
2023/06/07 01:29:18;;;;;;;23.58;8.52;;;11.30;99.90;;;;;;4942862;29;20146;-73
2023/06/07 01:31:44;;;;;;;18.13;8.13;;;11.30;99.90;;;;;;4958922;28;20478;-75
2023/06/07 01:34:11;;;;;;;20.23;8.80;;;11.30;99.90;;;;;;4965702;28;20067;-75
2023/06/07 01:36:38;;;;;;;23.00;8.55;;;11.30;99.90;;;;;;4956355;29;20035;-73
2023/06/07 01:39:04;;;;;;;19.73;8.45;;;11.30;99.90;;;;;;4944285;29;20094;-74
2023/06/07 01:41:30;;;;;;;19.83;8.27;;;11.20;99.90;;;;;;4953230;29;20499;-75
2023/06/07 01:43:58;;;;;;;19.60;9.13;;;11.20;99.90;;;;;;4940534;29;20027;-77
2023/06/07 01:46:24;;;;;;;19.05;7.93;;;11.20;99.90;;;;;;4949668;29;20028;-75
2023/06/07 01:48:50;;;;;;;23.05;9.35;;;11.20;99.90;;;;;;4947961;29;20089;-74
2023/06/07 01:51:16;;;;;;;21.73;8.98;;;11.20;99.90;;;;;;4942675;29;20027;-73
2023/06/07 01:53:43;;;;;;;18.35;8.75;;;11.20;99.90;;;;;;4953205;29;20126;-73
2023/06/07 01:56:18;;;;;;;20.85;9.00;;;11.20;99.90;;;;;;4941801;29;20066;-71
2023/06/07 01:59:10;;;;;;;21.75;9.38;;;11.20;99.90;;;;;;4946833;29;20032;-73
2023/06/07 02:01:50;;;;;;;18.33;9.10;;;11.20;99.90;;;;;;4952643;29;20027;-73
2023/06/07 02:04:20;;;;;;;20.63;8.38;;;11.10;99.90;;;;;;4942791;29;20039;-75
2023/06/07 02:06:50;;;;;;;22.33;9.50;;;11.10;99.90;;;;;;4946458;29;20027;-72
2023/06/07 02:09:18;;;;;;;21.80;9.52;;;11.10;99.90;;;;;;4950635;29;20040;-74
2023/06/07 02:11:44;;;;;;;21.33;8.82;;;11.10;99.90;;;;;;4940516;29;20072;-72
2023/06/07 02:14:11;;;;;;;24.95;9.70;;;11.10;99.90;;;;;;4935205;29;20387;-76
2023/06/07 02:16:36;;;;;;;24.35;9.75;;;11.10;99.90;;;;;;4945207;29;20031;-72
2023/06/07 02:19:09;;;;;;;20.50;9.70;;;11.10;99.90;;;;;;4944026;29;20078;-73
2023/06/07 02:21:36;;;;;;;22.08;9.57;;;11.10;99.90;;;;;;4952519;29;20027;-73
2023/06/07 02:24:02;;;;;;;23.10;8.75;;;11.10;99.90;;;;;;4940255;29;20031;-73
2023/06/07 02:26:28;;;;;;;24.98;8.77;;;11.10;99.90;;;;;;4948456;29;20031;-74
2023/06/07 02:28:54;;;;;;;21.20;8.35;;;11.10;99.90;;;;;;4947013;29;20027;-72
2023/06/07 02:31:20;;;;;;;20.85;9.02;;;11.10;99.90;;;;;;4961243;28;20045;-72
2023/06/07 02:33:49;;;;;;;20.85;8.57;;;11.10;99.90;;;;;;4956398;28;20055;-74
2023/06/07 02:36:15;;;;;;;19.25;8.40;;;11.10;99.90;;;;;;4949912;29;20036;-72
2023/06/07 02:38:41;;;;;;;18.05;7.50;;;11.10;99.90;;;;;;4945238;29;20090;-72
2023/06/07 02:41:06;;;;;;;20.08;7.53;;;11.10;99.90;;;;;;4954363;29;20019;-74
2023/06/07 02:43:32;;;;;;;19.20;7.78;;;11.10;99.90;;;;;;4938897;29;20059;-73
2023/06/07 02:45:57;;;;;;;20.90;8.10;;;11.20;99.90;;;;;;4952065;29;20032;-77
2023/06/07 02:48:23;;;;;;;22.75;8.57;;;11.30;99.90;;;;;;4942871;29;20031;-73
2023/06/07 02:50:48;;;;;;;16.10;6.72;;;11.30;99.90;;;;;;4945272;29;20031;-73
2023/06/07 02:53:14;;;;;;;19.08;7.45;;;11.30;99.90;;;;;;4949450;29;20031;-75
2023/06/07 02:55:39;;;;;;;22.98;7.13;;;11.30;99.90;;;;;;4938963;29;20053;-75
2023/06/07 02:58:05;;;;;;;20.05;7.75;;;11.40;99.90;;;;;;4950848;29;20363;-72
2023/06/07 03:00:31;;;;;;;17.83;6.25;;;11.40;99.90;;;;;;4943656;29;20467;-72
2023/06/07 03:02:57;;;;;;;19.73;6.82;;;11.50;99.90;;;;;;4944191;29;20050;-72
2023/06/07 03:05:26;;;;;;;19.48;6.95;;;11.50;99.90;;;;;;4950437;29;20051;-74
2023/06/07 03:07:52;;;;;;;16.42;6.05;;;11.60;99.90;;;;;;4939046;29;20028;-72
2023/06/07 03:10:18;;;;;;;19.98;7.35;;;11.60;99.90;;;;;;4948818;29;20186;-73
2023/06/07 03:12:44;;;;;;;20.05;6.28;;;11.70;99.90;;;;;;4944795;29;20042;-75
2023/06/07 03:15:11;;;;;;;18.88;6.82;;;11.70;99.90;;;;;;4941924;29;20036;-72
2023/06/07 03:17:38;;;;;;;18.10;5.88;;;11.80;99.90;;;;;;4951316;29;20031;-73
2023/06/07 03:20:06;;;;;;;17.38;6.28;;;11.80;99.90;;;;;;4939689;29;20031;-74
2023/06/07 03:22:31;;;;;;;19.23;5.40;;;11.90;99.90;;;;;;4946855;29;20086;-73
2023/06/07 03:24:57;;;;;;;19.52;5.90;;;11.90;99.90;;;;;;4946460;29;20051;-73
2023/06/07 03:27:23;;;;;;;19.23;5.68;;;12.00;99.90;;;;;;4939919;29;20027;-74
2023/06/07 03:29:50;;;;;;;13.80;5.50;;;12.00;99.90;;;;;;4951234;29;20459;-73
2023/06/07 03:32:15;;;;;;;13.45;5.03;;;12.00;99.90;;;;;;4941126;29;20027;-73
2023/06/07 03:34:42;;;;;;;17.30;5.90;;;12.00;99.90;;;;;;4945137;29;20044;-76
2023/06/07 03:37:08;;;;;;;23.73;5.78;;;12.10;99.90;;;;;;4947644;29;20106;-73
2023/06/07 03:39:35;;;;;;;18.33;4.95;;;12.10;99.90;;;;;;4938372;29;20030;-75
2023/06/07 03:42:00;;;;;;;14.65;4.88;;;12.10;99.90;;;;;;4938662;29;20449;-72
2023/06/07 03:44:26;;;;;;;18.60;5.68;;;12.20;99.90;;;;;;4954087;29;20134;-74
2023/06/07 03:46:51;;;;;;;13.25;4.38;;;12.20;99.90;;;;;;4963686;28;20035;-72
2023/06/07 03:49:17;;;;;;;14.88;5.60;;;12.20;99.90;;;;;;4955053;28;20039;-73
2023/06/07 03:51:43;;;;;;;17.83;4.95;;;12.20;99.90;;;;;;4955799;28;20345;-75
2023/06/07 03:54:10;;;;;;;15.23;4.60;;;12.30;99.90;;;;;;4957612;28;20375;-73
2023/06/07 03:56:36;;;;;;;15.00;4.85;;;12.30;99.90;;;;;;4939077;29;20453;-73
2023/06/07 03:59:02;;;;;;;17.95;4.60;;;12.40;99.90;;;;;;4953514;28;20573;-73
2023/06/07 04:01:27;;;;;;;15.73;4.43;;;12.40;99.90;;;;;;4955270;28;20027;-74
2023/06/07 04:03:53;;;;;;;13.40;3.55;;;12.40;99.90;;;;;;4957352;28;20050;-72
2023/06/07 04:06:20;;;;;;;15.00;4.57;;;12.40;99.90;;;;;;4958747;28;20036;-72
2023/06/07 04:08:46;;;;;;;16.92;3.97;;;12.40;99.90;;;;;;4953381;28;20081;-73
2023/06/07 04:11:12;;;;;;;17.85;4.43;;;12.50;99.90;;;;;;4953813;29;20035;-76
2023/06/07 04:13:37;;;;;;;13.65;4.60;;;12.50;99.90;;;;;;4956083;28;20158;-73
2023/06/07 04:16:03;;;;;;;15.82;4.85;;;12.50;99.90;;;;;;4955905;28;20490;-73
2023/06/07 04:18:29;;;;;;;14.35;4.30;;;12.60;99.90;;;;;;4956292;28;20039;-75
2023/06/07 04:20:55;;;;;;;13.70;3.78;;;12.60;99.90;;;;;;4956471;28;20500;-72
2023/06/07 04:23:21;;;;;;;14.45;4.13;;;12.60;99.90;;;;;;4957532;28;20034;-73
2023/06/07 04:25:46;;;;;;;11.07;3.92;;;12.70;99.90;;;;;;4958792;28;20027;-72
2023/06/07 04:28:12;;;;;;;10.25;3.75;;;12.70;99.90;;;;;;4958811;28;20030;-73
2023/06/07 04:30:40;;;;;;;20.27;4.95;;;12.70;99.90;;;;;;4960065;28;20031;-75
2023/06/07 04:33:13;;;;;;;12.77;4.13;;;12.80;99.90;;;;;;4953920;28;20020;-73
2023/06/07 04:35:42;;;;;;;11.38;3.20;;;12.80;99.90;;;;;;4951601;29;20035;-73
2023/06/07 04:38:11;;;;;;;13.20;3.60;;;12.90;99.90;;;;;;4953533;29;20114;-77
2023/06/07 04:40:41;;;;;;;13.55;4.03;;;12.90;99.90;;;;;;4951180;29;20530;-73
2023/06/07 04:43:08;;;;;;;15.10;3.67;;;12.90;99.90;;;;;;4953492;29;20039;-75
2023/06/07 04:45:36;;;;;;;13.10;3.25;;;13.00;99.90;;;;;;4953447;29;20039;-78
2023/06/07 04:48:04;;;;;;;11.57;3.67;;;13.10;99.90;;;;;;4953517;29;20058;-77
2023/06/07 04:50:30;;;;;;;14.55;3.92;;;13.20;99.90;;;;;;4936356;28;20428;-72
2023/06/07 04:53:03;;;;;;;14.98;4.15;;;13.20;99.90;;;;;;4950455;29;20506;-75
2023/06/07 04:55:34;;;;;;;15.05;3.60;;;13.30;99.90;;;;;;4953761;29;20027;-78
2023/06/07 04:58:03;;;;;;;11.02;3.60;;;13.30;99.90;;;;;;4953463;28;20474;-74
2023/06/07 05:00:30;;;;;;;14.82;3.65;;;13.40;99.90;;;;;;4957258;29;20070;-73
2023/06/07 05:02:56;;;;;;;14.18;3.60;;;13.50;99.90;;;;;;4954146;29;20023;-73
2023/06/07 05:05:22;;;;;;;19.83;4.30;;;13.60;99.90;;;;;;4957224;29;20038;-73
2023/06/07 05:07:49;;;;;;;13.00;3.38;;;13.70;99.90;;;;;;4956971;29;20023;-73
2023/06/07 05:10:16;;;;;;;9.80;3.38;;;13.70;99.90;;;;;;4939786;29;20031;-73
2023/06/07 05:12:42;;;;;;;13.45;3.78;;;13.80;99.90;;;;;;4956866;29;20043;-77
2023/06/07 05:15:08;;;;;;;22.67;4.30;;;13.80;99.90;;;;;;4957118;28;20035;-75
2023/06/07 05:17:34;;;;;;;14.73;3.80;;;13.90;99.90;;;;;;4956360;29;20023;-74
2023/06/07 05:20:00;;;;;;;8.60;2.90;;;14.00;99.90;;;;;;4957061;29;20452;-73
2023/06/07 05:22:25;;;;;;;13.23;3.80;;;14.00;99.90;;;;;;4956979;29;20023;-73
2023/06/07 05:24:51;;;;;;;14.60;3.80;;;14.00;99.90;;;;;;4956959;29;20163;-77
2023/06/07 05:27:17;;;;;;;17.67;4.10;;;14.10;99.90;;;;;;4956732;29;20031;-72
2023/06/07 05:29:43;;;;;;;13.63;3.78;;;14.20;99.90;;;;;;4956634;29;20102;-77
2023/06/07 05:32:09;;;;;;;14.07;3.70;;;14.30;99.90;;;;;;4956299;29;20103;-73
2023/06/07 05:34:35;;;;;;;13.90;3.33;;;14.50;99.90;;;;;;4953384;28;20037;-75
2023/06/07 05:37:02;;;;;;;15.85;3.35;;;14.60;99.90;;;;;;4966293;28;20489;-76
2023/06/07 05:39:27;;;;;;;11.20;3.40;;;14.70;99.90;;;;;;4961110;28;20039;-74
2023/06/07 05:41:53;;;;;;;14.38;3.20;;;14.80;99.90;;;;;;4945464;29;20411;-72
2023/06/07 05:44:18;;;;;;;9.98;3.55;;;14.80;99.90;;;;;;4951239;29;20097;-74
2023/06/07 05:46:44;;;;;;;9.23;2.78;;;14.80;99.90;;;;;;4946780;29;20046;-74
2023/06/07 05:49:10;;;;;;;11.35;3.22;;;14.90;99.90;;;;;;4944205;29;20040;-76
2023/06/07 05:51:36;;;;;;;10.82;3.10;;;14.90;99.90;;;;;;4953274;29;20051;-74
2023/06/07 05:54:02;;;;;;;16.52;3.95;;;15.00;99.90;;;;;;4950426;29;20023;-73
2023/06/07 05:56:27;;;;;;;18.60;3.80;;;15.10;99.90;;;;;;4949546;29;20043;-74
2023/06/07 05:58:53;;;;;;;13.35;3.42;;;15.30;99.90;;;;;;4947813;29;20170;-73
2023/06/07 06:01:18;;;;;;;15.52;3.58;;;15.40;99.90;;;;;;4942190;29;20479;-78
2023/06/07 06:03:44;;;;;;;11.07;2.67;;;15.50;99.90;;;;;;4952596;29;20031;-74
2023/06/07 06:06:16;;;;;;;12.23;3.40;;;15.80;99.90;;;;;;4942278;28;20038;-74
2023/06/07 06:08:42;;;;;;;18.85;3.42;;;16.00;99.90;;;;;;4967182;28;20023;-75
2023/06/07 06:11:12;;;;;;;13.43;3.20;;;16.20;99.90;;;;;;4963788;28;20130;-74
2023/06/07 06:13:38;;;;;;;15.68;3.78;;;16.40;99.90;;;;;;4944146;29;20030;-73
2023/06/07 06:16:04;;;;;;;10.68;3.50;;;16.50;99.90;;;;;;4954731;29;20078;-75
2023/06/07 06:18:30;;;;;;;11.50;3.15;;;16.40;99.90;;;;;;4955109;29;20031;-75
2023/06/07 06:20:55;;;;;;;10.95;3.38;;;16.30;99.90;;;;;;4957413;28;20039;-74
2023/06/07 06:23:22;;;;;;;13.13;3.60;;;16.30;99.90;;;;;;4954622;28;20098;-75
2023/06/07 06:25:47;;;;;;;10.90;3.13;;;16.30;99.90;;;;;;4954575;29;20031;-73
2023/06/07 06:28:13;;;;;;;10.32;3.13;;;16.40;99.90;;;;;;4954315;29;20535;-73
2023/06/07 06:30:39;;;;;;;10.60;3.47;;;16.50;99.90;;;;;;4954713;29;20031;-72
2023/06/07 06:33:05;;;;;;;9.65;2.95;;;16.60;99.90;;;;;;4954536;29;20383;-74
2023/06/07 06:35:32;;;;;;;13.27;2.80;;;16.60;99.90;;;;;;4954769;29;20106;-73
2023/06/07 06:37:59;;;;;;;12.57;3.28;;;16.70;99.90;;;;;;4946404;29;20031;-73
2023/06/07 06:40:26;;;;;;;15.70;3.72;;;16.70;99.90;;;;;;4955141;29;20023;-74
2023/06/07 06:42:51;;;;;;;14.73;3.15;;;16.80;99.90;;;;;;4945097;29;20118;-72
2023/06/07 06:45:17;;;;;;;15.77;2.65;;;17.00;99.90;;;;;;4949313;29;20141;-73
2023/06/07 06:47:42;;;;;;;12.18;3.80;;;17.50;99.90;;;;;;4939606;29;20035;-73
2023/06/07 06:50:10;;;;;;;9.68;3.15;;;18.00;99.90;;;;;;4957892;28;20035;-72
2023/06/07 06:52:37;;;;;;;11.13;3.20;;;18.10;99.90;;;;;;4957776;28;20050;-73
2023/06/07 06:55:03;;;;;;;9.20;2.80;;;18.10;99.90;;;;;;4955012;29;20027;-74
2023/06/07 06:57:29;;;;;;;12.20;3.00;;;18.10;99.90;;;;;;4951921;29;20036;-74
2023/06/07 06:59:55;;;;;;;14.57;3.20;;;18.20;99.90;;;;;;4939346;29;20493;-78
2023/06/07 07:02:20;;;;;;;14.48;3.25;;;18.50;99.90;;;;;;4949544;29;20028;-72
2023/06/07 07:04:46;;;;;;;10.40;3.28;;;18.80;99.90;;;;;;4946310;28;20378;-73
2023/06/07 07:07:11;;;;;;;14.73;3.17;;;19.00;99.90;;;;;;4965592;28;20030;-73
2023/06/07 07:09:37;;;;;;;8.82;2.70;;;19.50;99.90;;;;;;4957628;28;20024;-71
2023/06/07 07:12:04;;;;;;;9.77;3.10;;;20.10;99.90;;;;;;4942341;29;20055;-72
2023/06/07 07:14:29;;;;;;;13.32;2.95;;;20.90;99.30;;;;;;4948810;29;20046;-72
2023/06/07 07:16:55;;;;;;;10.40;2.90;;;21.70;97.60;;;;;;4946525;29;20110;-73
2023/06/07 07:19:20;;;;;;;11.45;3.00;;;22.20;96.80;;;;;;4945121;28;20035;-76
2023/06/07 07:21:46;;;;;;;10.82;3.40;;;22.80;96.00;;;;;;4967072;28;20085;-72
2023/06/07 07:24:11;;;;;;;13.82;3.25;;;23.20;95.40;;;;;;4954925;29;20042;-72
2023/06/07 07:26:39;;;;;;;11.32;2.90;;;23.60;94.60;;;;;;4951636;29;20096;-75
2023/06/07 07:29:04;;;;;;;9.95;2.88;;;23.80;94.30;;;;;;4945538;29;20031;-73
2023/06/07 07:31:33;;;;;;;13.40;3.33;;;24.20;94.10;;;;;;4951500;29;20023;-73
2023/06/07 07:33:59;;;;;;;12.18;3.17;;;24.30;93.30;;;;;;4951721;29;20085;-73
2023/06/07 07:36:25;;;;;;;12.55;3.13;;;24.30;93.10;;;;;;4947752;29;20399;-74
2023/06/07 07:38:51;;;;;;;13.35;3.45;;;24.50;93.00;;;;;;4953022;29;20027;-73
2023/06/07 07:41:17;;;;;;;11.90;2.72;;;24.90;92.50;;;;;;4944743;29;20051;-75
2023/06/07 07:43:43;;;;;;;7.60;3.03;;;24.90;92.30;;;;;;4954525;29;20034;-74
2023/06/07 07:46:08;;;;;;;10.02;3.47;;;24.90;92.30;;;;;;4954592;29;20439;-73
2023/06/07 07:48:34;;;;;;;9.15;3.22;;;25.00;92.00;;;;;;4954552;29;20118;-74
2023/06/07 07:51:01;;;;;;;6.03;2.42;;;25.10;91.70;;;;;;4954533;29;20062;-75
2023/06/07 07:53:27;;;;;;;8.32;2.65;;;24.80;91.80;;;;;;4954798;29;20106;-75
2023/06/07 07:55:53;;;;;;;8.63;3.08;;;24.40;92.30;;;;;;4954095;29;20110;-74
2023/06/07 07:58:18;;;;;;;11.65;3.05;;;24.30;92.40;;;;;;4954681;29;20039;-74
2023/06/07 08:00:44;;;;;;;11.10;3.78;;;23.90;92.90;;;;;;4954753;29;20070;-75
2023/06/07 08:03:11;;;;;;;10.98;3.20;;;23.50;93.20;;;;;;4954558;29;20047;-75
2023/06/07 08:05:36;;;;;;;11.90;3.53;;;23.20;93.50;;;;;;4959837;28;20042;-74
2023/06/07 08:08:02;;;;;;;13.18;3.33;;;23.10;93.60;;;;;;4964891;28;20024;-74
2023/06/07 08:10:28;;;;;;;12.75;3.83;;;23.20;93.90;;;;;;4954011;29;20391;-77
2023/06/07 08:12:54;;;;;;;15.02;3.72;;;23.20;93.90;;;;;;4954375;29;20360;-75
2023/06/07 08:15:19;;;;;;;11.52;3.65;;;23.50;94.00;;;;;;4954062;29;20034;-74
2023/06/07 08:17:45;;;;;;;10.88;3.33;;;23.90;93.20;;;;;;4954042;29;20031;-74
2023/06/07 08:20:11;;;;;;;9.90;2.70;;;24.00;93.20;;;;;;4954795;29;20055;-74
2023/06/07 08:22:37;;;;;;;13.43;3.50;;;24.20;92.80;;;;;;4954313;29;20055;-74
2023/06/07 08:25:04;;;;;;;12.13;3.22;;;24.30;92.70;;;;;;4954182;29;20027;-75
2023/06/07 08:27:30;;;;;;;9.55;3.03;;;24.70;92.20;;;;;;4954351;29;20456;-76
2023/06/07 08:29:55;;;;;;;12.45;3.53;;;25.20;91.40;;;;;;4954257;29;20055;-74
2023/06/07 08:32:21;;;;;;;12.02;3.70;;;25.70;91.40;;;;;;4954798;28;20026;-76
2023/06/07 08:34:47;;;;;;;8.93;2.97;;;26.40;90.60;;;;;;4957812;29;20031;-75
2023/06/07 08:37:14;;;;;;;10.95;3.53;;;27.10;89.40;;;;;;4957924;29;20138;-74
2023/06/07 08:39:40;;;;;;;14.43;3.58;;;27.40;88.50;;;;;;4957572;28;20107;-76
2023/06/07 08:42:06;;;;;;;9.10;3.67;;;27.80;87.40;;;;;;4957545;28;20051;-74
2023/06/07 08:44:31;;;;;;;11.30;3.45;;;28.30;87.00;;;;;;4957858;29;20039;-74
2023/06/07 08:46:59;;;;;;;9.15;3.00;;;29.00;85.00;;;;;;4957988;29;20027;-76
2023/06/07 08:49:26;;;;;;;11.40;3.60;;;29.50;83.60;;;;;;4958779;28;20055;-74
2023/06/07 08:51:53;;;;;;;9.85;2.90;;;29.90;82.70;;;;;;4969745;28;20066;-74
2023/06/07 08:54:23;;;;;;;12.43;3.63;;;30.30;81.70;;;;;;4957639;29;20363;-74
2023/06/07 08:56:49;;;;;;;12.93;3.80;;;30.50;80.70;;;;;;4957514;29;20121;-74
2023/06/07 08:59:17;;;;;;;12.13;4.18;;;30.80;80.50;;;;;;4957833;29;20455;-73
2023/06/07 09:01:43;;;;;;;9.48;3.17;;;30.90;79.70;;;;;;4957135;29;20031;-74
2023/06/07 09:04:10;;;;;;;9.25;2.97;;;31.00;79.30;;;;;;4957168;29;20431;-74
2023/06/07 09:06:35;;;;;;;9.70;2.90;;;31.30;78.40;;;;;;4957265;29;20031;-77
2023/06/07 09:09:03;;;;;;;7.32;3.15;;;31.70;77.50;;;;;;4957288;29;20036;-74
2023/06/07 09:11:30;;;;;;;10.65;3.38;;;31.80;77.00;;;;;;4957259;29;20036;-74
2023/06/07 09:13:59;;;;;;;10.57;3.20;;;32.10;76.50;;;;;;4957415;28;20122;-74
2023/06/07 09:16:25;;;;;;;7.43;2.90;;;32.40;75.40;;;;;;4957145;29;20023;-73
2023/06/07 09:18:54;;;;;;;9.15;3.08;;;32.40;75.30;;;;;;4956589;28;20435;-75
2023/06/07 09:21:32;;;;;;;9.57;3.13;;;32.30;75.20;;;;;;4963220;28;20062;-74
2023/06/07 09:23:59;;;;;;;9.27;2.88;;;32.50;74.70;;;;;;4956766;28;20035;-76
2023/06/07 09:26:36;;;;;;;7.05;2.50;;;32.50;74.40;;;;;;4956721;29;20510;-74
2023/06/07 09:29:07;;;;;;;11.02;3.30;;;32.60;73.70;;;;;;4956798;29;20034;-74
2023/06/07 09:31:33;;;;;;;8.75;3.00;;;32.50;73.70;;;;;;4955484;29;20423;-74
2023/06/07 09:34:17;;;;;;;9.77;3.17;;;32.50;73.80;;;;;;4940658;29;20023;-73
2023/06/07 09:36:53;;;;;;;8.32;2.80;;;32.60;73.30;;;;;;4956509;29;20027;-76
2023/06/07 09:39:21;;;;;;;9.55;2.90;;;32.60;73.00;;;;;;4956824;29;20073;-75
2023/06/07 09:41:46;;;;;;;12.32;3.38;;;32.70;72.60;;;;;;4956194;29;20063;-75
2023/06/07 09:44:27;;;;;;;7.95;3.20;;;32.90;72.50;;;;;;4956317;28;20368;-75
2023/06/07 09:46:57;;;;;;;14.00;3.30;;;32.80;72.50;;;;;;4956887;29;20035;-75
2023/06/07 09:49:34;;;;;;;11.07;4.63;;;32.80;72.60;;;;;;4956830;29;20459;-77
2023/06/07 09:52:04;;;;;;;9.38;3.10;;;32.80;72.70;;;;;;4956273;29;20026;-74
2023/06/07 09:54:38;;;;;;;11.63;3.22;;;33.20;71.90;;;;;;4952096;29;20153;-74
2023/06/07 09:57:06;;;;;;;10.05;3.22;;;33.30;71.70;;;;;;4947920;29;20031;-74
2023/06/07 09:59:32;;;;;;;8.82;3.40;;;33.50;71.20;;;;;;4956236;29;20115;-74
2023/06/07 10:01:58;;;;;;;11.50;3.50;;;33.80;71.20;;;;;;4956141;29;20444;-73
2023/06/07 10:04:23;;;;;;;9.52;2.92;;;34.10;70.60;;;;;;4955940;29;20054;-73
2023/06/07 10:06:52;;;;;;;10.77;3.72;;;34.20;69.90;;;;;;4956439;29;20074;-74
2023/06/07 10:09:19;;;;;;;9.25;3.80;;;34.10;70.20;;;;;;4938805;29;20031;-74
2023/06/07 10:11:51;;;;;;;10.65;3.80;;;34.00;70.40;;;;;;4956298;28;20115;-73
2023/06/07 10:14:18;;;;;;;10.55;3.60;;;33.90;70.30;;;;;;4956136;29;20023;-76
2023/06/07 10:16:55;;;;;;;10.55;3.60;;;34.20;69.80;;;;;;4945833;29;20081;-75
2023/06/07 10:19:26;;;;;;;9.02;3.80;;;34.30;69.70;;;;;;4955826;29;20031;-74
2023/06/07 10:21:55;;;;;;;11.65;3.50;;;34.60;70.10;;;;;;4955243;29;20111;-76
2023/06/07 10:24:24;;;;;;;12.63;3.88;;;35.10;69.10;;;;;;4955334;29;20047;-74
2023/06/07 10:26:53;;;;;;;10.73;3.80;;;35.40;68.40;;;;;;4955998;29;20037;-75
2023/06/07 10:29:30;;;;;;;9.27;3.75;;;35.60;68.20;;;;;;4955965;29;20054;-76
2023/06/07 10:32:10;;;;;;;9.48;3.78;;;35.80;68.10;;;;;;4956059;29;20034;-74
2023/06/07 10:34:37;;;;;;;15.07;4.10;;;35.90;66.80;;;;;;4956088;29;20031;-77
2023/06/07 10:37:07;;;;;;;9.70;3.60;;;35.80;66.70;;;;;;4955868;28;20035;-75
2023/06/07 10:39:33;;;;;;;9.63;3.50;;;35.80;66.70;;;;;;4955827;28;20035;-73
2023/06/07 10:42:00;;;;;;;12.27;3.60;;;35.80;66.60;;;;;;4952334;29;20074;-75
2023/06/07 10:44:25;;;;;;;11.70;3.60;;;35.50;66.50;;;;;;4943052;29;20046;-77
2023/06/07 10:47:24;;;;;;;10.05;3.35;;;35.10;66.90;;;;;;4945360;29;20036;-75
2023/06/07 10:49:53;;;;;;;11.85;3.50;;;35.30;67.10;;;;;;4952105;28;20034;-74
2023/06/07 10:52:19;;;;;;;8.93;3.22;;;35.30;66.20;;;;;;4941432;29;20122;-75
2023/06/07 10:54:46;;;;;;;9.40;3.25;;;35.00;66.70;;;;;;4934376;29;20059;-74
2023/06/07 10:57:12;;;;;;;11.93;4.07;;;34.70;67.00;;;;;;4948964;29;20038;-75
2023/06/07 10:59:39;;;;;;;11.48;4.05;;;34.70;67.00;;;;;;4939751;29;20083;-75
2023/06/07 11:02:24;;;;;;;8.32;3.35;;;34.80;66.60;;;;;;4951173;29;20380;-74
2023/06/07 11:04:57;;;;;;;8.82;3.58;;;34.90;66.50;;;;;;4946404;29;20050;-77
2023/06/07 11:07:30;;;;;;;10.57;3.40;;;35.20;66.20;;;;;;4941115;29;20042;-75
2023/06/07 11:10:08;;;;;;;11.25;3.65;;;35.40;66.00;;;;;;4951838;29;20035;-75
2023/06/07 11:12:38;;;;;;;10.52;3.17;;;35.30;66.10;;;;;;4943798;29;20050;-78
2023/06/07 11:15:35;;;;;;;9.05;3.55;;;35.40;66.60;;;;;;4952570;29;20031;-74
2023/06/07 11:18:07;;;;;;;11.50;3.30;;;35.80;65.10;;;;;;4939289;29;20070;-74
2023/06/07 11:20:38;;;;;;;13.20;4.15;;;35.70;65.40;;;;;;4961905;28;20038;-74
2023/06/07 11:23:26;;;;;;;9.85;3.40;;;35.40;65.80;;;;;;4961221;28;20088;-76
2023/06/07 11:26:08;;;;;;;10.68;4.10;;;35.10;65.70;;;;;;4951826;29;20107;-74
2023/06/07 11:28:37;;;;;;;9.98;4.80;;;34.70;66.00;;;;;;4945680;29;20388;-73
2023/06/07 11:31:04;;;;;;;9.65;4.20;;;34.30;66.00;;;;;;4947360;29;20038;-75
2023/06/07 11:33:30;;;;;;;9.32;3.90;;;34.00;66.30;;;;;;4953708;29;20352;-74
2023/06/07 11:35:56;;;;;;;14.32;4.22;;;34.00;67.00;;;;;;4938816;29;20059;-75
2023/06/07 11:38:23;;;;;;;10.95;3.90;;;34.30;66.60;;;;;;4952526;29;20038;-76
2023/06/07 11:40:49;;;;;;;9.73;4.15;;;34.50;66.40;;;;;;4944452;29;20044;-77
2023/06/07 11:43:22;;;;;;;7.53;4.05;;;34.70;65.80;;;;;;4954625;28;20035;-78
2023/06/07 11:45:49;;;;;;;10.25;3.88;;;34.70;66.50;;;;;;4954407;29;20141;-77
2023/06/07 11:48:15;;;;;;;11.95;3.90;;;34.60;66.00;;;;;;4954454;29;20063;-78
2023/06/07 11:50:43;;;;;;;9.85;3.97;;;34.70;65.80;;;;;;4954683;29;20060;-77
2023/06/07 11:53:09;;;;;;;10.75;4.00;;;34.20;66.30;;;;;;4954488;29;20038;-74
2023/06/07 11:55:38;;;;;;;8.15;3.42;;;33.60;66.90;;;;;;4954405;29;20035;-74
2023/06/07 11:58:05;;;;;;;7.18;3.72;;;33.70;66.90;;;;;;4954610;29;20027;-74
2023/06/07 12:00:33;;;;;;;12.82;4.03;;;34.20;66.40;;;;;;4954592;29;20031;-75
2023/06/07 12:03:00;;;;;;;11.05;4.05;;;34.30;66.50;;;;;;4954374;29;20090;-75
2023/06/07 12:05:30;;;;;;;11.98;4.07;;;34.50;66.30;;;;;;4958715;28;20050;-77
2023/06/07 12:08:04;;;;;;;9.60;4.10;;;34.80;66.20;;;;;;4958048;28;20123;-75
2023/06/07 12:10:36;;;;;;;8.93;4.07;;;34.80;65.40;;;;;;4954043;29;20053;-74
2023/06/07 12:13:15;;;;;;;13.93;4.40;;;34.70;65.60;;;;;;4953934;29;20506;-75
2023/06/07 12:15:48;;;;;;;10.32;4.18;;;34.80;65.40;;;;;;4954135;29;20059;-77
2023/06/07 12:18:16;;;;;;;10.00;4.00;;;35.00;65.80;;;;;;4953661;28;20042;-75
2023/06/07 12:20:42;;;;;;;13.23;4.40;;;35.30;65.00;;;;;;4961092;28;20034;-73
2023/06/07 12:23:10;;;;;;;9.27;3.67;;;35.40;65.10;;;;;;4959977;28;20059;-77
2023/06/07 12:25:35;;;;;;;10.45;4.03;;;35.60;64.80;;;;;;4952802;29;20070;-75
2023/06/07 12:28:09;;;;;;;13.30;3.95;;;35.50;64.70;;;;;;4953848;29;20498;-74
2023/06/07 12:30:39;;;;;;;11.68;3.83;;;35.50;64.50;;;;;;4954666;29;20035;-74
2023/06/07 12:33:06;;;;;;;11.27;4.17;;;35.10;64.70;;;;;;4954032;29;20511;-74
2023/06/07 12:35:37;;;;;;;9.93;4.18;;;34.70;64.80;;;;;;4954195;28;20055;-74
2023/06/07 12:38:03;;;;;;;7.68;3.85;;;34.30;65.00;;;;;;4940027;29;20391;-74
2023/06/07 12:40:29;;;;;;;11.00;4.22;;;34.00;65.60;;;;;;4954112;29;20049;-77